sensor_id;sensor_type;location;lat;lon;timestamp;P1;durP1;ratioP1;P2;durP2;ratioP2
61358;SDS011;47228;46.762;23.598;2024-02-26T00:00:49;43.80;;;24.60;;
61358;SDS011;47228;46.762;23.598;2024-02-26T00:03:38;47.70;;;26.80;;
61358;SDS011;47228;46.762;23.598;2024-02-26T00:06:09;83.40;;;35.30;;
61358;SDS011;47228;46.762;23.598;2024-02-26T00:08:37;57.80;;;28.80;;
61358;SDS011;47228;46.762;23.598;2024-02-26T00:11:05;50.80;;;28.20;;
61358;SDS011;47228;46.762;23.598;2024-02-26T00:13:34;50.40;;;28.60;;
61358;SDS011;47228;46.762;23.598;2024-02-26T00:16:02;42.70;;;25.20;;
61358;SDS011;47228;46.762;23.598;2024-02-26T00:18:31;50.00;;;28.00;;
61358;SDS011;47228;46.762;23.598;2024-02-26T00:21:00;52.10;;;28.70;;
61358;SDS011;47228;46.762;23.598;2024-02-26T00:23:28;49.80;;;26.80;;
61358;SDS011;47228;46.762;23.598;2024-02-26T00:25:56;52.50;;;28.70;;
61358;SDS011;47228;46.762;23.598;2024-02-26T00:28:25;60.90;;;28.90;;
61358;SDS011;47228;46.762;23.598;2024-02-26T00:30:55;61.90;;;30.90;;
61358;SDS011;47228;46.762;23.598;2024-02-26T00:33:23;60.20;;;30.50;;
61358;SDS011;47228;46.762;23.598;2024-02-26T00:35:52;58.50;;;30.80;;
61358;SDS011;47228;46.762;23.598;2024-02-26T00:38:20;54.70;;;30.20;;
61358;SDS011;47228;46.762;23.598;2024-02-26T00:40:48;56.30;;;31.00;;
61358;SDS011;47228;46.762;23.598;2024-02-26T00:43:16;52.60;;;29.10;;
61358;SDS011;47228;46.762;23.598;2024-02-26T00:45:45;50.90;;;28.80;;
61358;SDS011;47228;46.762;23.598;2024-02-26T00:48:14;56.80;;;31.30;;
61358;SDS011;47228;46.762;23.598;2024-02-26T00:50:43;55.80;;;30.60;;
61358;SDS011;47228;46.762;23.598;2024-02-26T00:53:11;56.90;;;30.10;;
61358;SDS011;47228;46.762;23.598;2024-02-26T00:55:39;53.50;;;30.80;;
61358;SDS011;47228;46.762;23.598;2024-02-26T00:58:08;56.40;;;30.10;;
61358;SDS011;47228;46.762;23.598;2024-02-26T01:00:37;60.40;;;31.40;;
61358;SDS011;47228;46.762;23.598;2024-02-26T01:03:05;58.90;;;32.00;;
61358;SDS011;47228;46.762;23.598;2024-02-26T01:05:33;60.60;;;32.60;;
61358;SDS011;47228;46.762;23.598;2024-02-26T01:08:01;59.50;;;31.40;;
61358;SDS011;47228;46.762;23.598;2024-02-26T01:10:30;57.20;;;29.20;;
61358;SDS011;47228;46.762;23.598;2024-02-26T01:12:59;54.90;;;29.40;;
61358;SDS011;47228;46.762;23.598;2024-02-26T01:15:27;56.00;;;29.70;;
61358;SDS011;47228;46.762;23.598;2024-02-26T01:17:55;58.90;;;30.60;;
61358;SDS011;47228;46.762;23.598;2024-02-26T01:20:24;56.90;;;30.60;;
61358;SDS011;47228;46.762;23.598;2024-02-26T01:22:52;55.60;;;29.90;;
61358;SDS011;47228;46.762;23.598;2024-02-26T01:25:20;54.00;;;30.10;;
61358;SDS011;47228;46.762;23.598;2024-02-26T01:27:48;57.00;;;30.60;;
61358;SDS011;47228;46.762;23.598;2024-02-26T01:30:16;52.80;;;28.30;;
61358;SDS011;47228;46.762;23.598;2024-02-26T01:32:45;53.00;;;29.10;;
61358;SDS011;47228;46.762;23.598;2024-02-26T01:35:13;53.40;;;28.00;;
61358;SDS011;47228;46.762;23.598;2024-02-26T01:37:41;58.70;;;30.70;;
61358;SDS011;47228;46.762;23.598;2024-02-26T01:40:10;56.70;;;29.50;;
61358;SDS011;47228;46.762;23.598;2024-02-26T01:42:38;53.80;;;29.20;;
61358;SDS011;47228;46.762;23.598;2024-02-26T01:45:08;53.20;;;28.90;;
61358;SDS011;47228;46.762;23.598;2024-02-26T01:47:43;50.00;;;28.70;;
61358;SDS011;47228;46.762;23.598;2024-02-26T01:50:14;52.40;;;28.70;;
61358;SDS011;47228;46.762;23.598;2024-02-26T01:52:42;53.20;;;28.80;;
61358;SDS011;47228;46.762;23.598;2024-02-26T01:55:11;55.90;;;29.90;;
61358;SDS011;47228;46.762;23.598;2024-02-26T01:57:39;57.10;;;30.60;;
61358;SDS011;47228;46.762;23.598;2024-02-26T02:00:08;59.90;;;29.60;;
61358;SDS011;47228;46.762;23.598;2024-02-26T02:02:38;56.70;;;29.30;;
61358;SDS011;47228;46.762;23.598;2024-02-26T02:05:06;54.00;;;29.80;;
61358;SDS011;47228;46.762;23.598;2024-02-26T02:07:35;53.20;;;28.00;;
61358;SDS011;47228;46.762;23.598;2024-02-26T02:10:04;91.80;;;37.10;;
61358;SDS011;47228;46.762;23.598;2024-02-26T02:12:33;86.00;;;37.30;;
61358;SDS011;47228;46.762;23.598;2024-02-26T02:15:01;59.20;;;29.70;;
61358;SDS011;47228;46.762;23.598;2024-02-26T02:17:30;59.40;;;30.80;;
61358;SDS011;47228;46.762;23.598;2024-02-26T02:19:59;58.20;;;29.50;;
61358;SDS011;47228;46.762;23.598;2024-02-26T02:22:27;61.80;;;32.80;;
61358;SDS011;47228;46.762;23.598;2024-02-26T02:24:55;64.60;;;32.40;;
61358;SDS011;47228;46.762;23.598;2024-02-26T02:27:24;67.80;;;33.40;;
61358;SDS011;47228;46.762;23.598;2024-02-26T02:29:52;57.50;;;30.40;;
61358;SDS011;47228;46.762;23.598;2024-02-26T02:32:21;59.80;;;31.20;;
61358;SDS011;47228;46.762;23.598;2024-02-26T02:34:49;58.80;;;29.90;;
61358;SDS011;47228;46.762;23.598;2024-02-26T02:37:17;57.20;;;30.50;;
61358;SDS011;47228;46.762;23.598;2024-02-26T02:39:45;69.70;;;32.90;;
61358;SDS011;47228;46.762;23.598;2024-02-26T02:42:13;66.90;;;33.00;;
61358;SDS011;47228;46.762;23.598;2024-02-26T02:44:42;71.20;;;33.90;;
61358;SDS011;47228;46.762;23.598;2024-02-26T02:47:10;90.20;;;37.20;;
61358;SDS011;47228;46.762;23.598;2024-02-26T02:49:38;100.20;;;40.30;;
61358;SDS011;47228;46.762;23.598;2024-02-26T02:52:06;132.30;;;47.10;;
61358;SDS011;47228;46.762;23.598;2024-02-26T02:54:35;106.30;;;43.60;;
61358;SDS011;47228;46.762;23.598;2024-02-26T02:57:04;104.10;;;42.20;;
61358;SDS011;47228;46.762;23.598;2024-02-26T02:59:32;110.70;;;43.40;;
61358;SDS011;47228;46.762;23.598;2024-02-26T03:02:01;96.50;;;40.20;;
61358;SDS011;47228;46.762;23.598;2024-02-26T03:04:29;80.00;;;37.70;;
61358;SDS011;47228;46.762;23.598;2024-02-26T03:06:57;73.20;;;34.90;;
61358;SDS011;47228;46.762;23.598;2024-02-26T03:09:26;69.70;;;34.60;;
61358;SDS011;47228;46.762;23.598;2024-02-26T03:11:54;68.10;;;35.10;;
61358;SDS011;47228;46.762;23.598;2024-02-26T03:14:22;66.90;;;35.00;;
61358;SDS011;47228;46.762;23.598;2024-02-26T03:16:53;63.20;;;33.20;;
61358;SDS011;47228;46.762;23.598;2024-02-26T03:19:22;57.70;;;31.70;;
61358;SDS011;47228;46.762;23.598;2024-02-26T03:21:53;53.70;;;29.90;;
61358;SDS011;47228;46.762;23.598;2024-02-26T03:24:21;59.70;;;31.30;;
61358;SDS011;47228;46.762;23.598;2024-02-26T03:26:50;59.10;;;31.90;;
61358;SDS011;47228;46.762;23.598;2024-02-26T03:29:20;64.80;;;31.90;;
61358;SDS011;47228;46.762;23.598;2024-02-26T03:31:48;54.60;;;29.50;;
61358;SDS011;47228;46.762;23.598;2024-02-26T03:34:16;58.70;;;28.60;;
61358;SDS011;47228;46.762;23.598;2024-02-26T03:36:46;55.40;;;29.70;;
61358;SDS011;47228;46.762;23.598;2024-02-26T03:39:14;54.60;;;28.90;;
61358;SDS011;47228;46.762;23.598;2024-02-26T03:41:43;51.90;;;28.50;;
61358;SDS011;47228;46.762;23.598;2024-02-26T03:44:11;52.90;;;29.30;;
61358;SDS011;47228;46.762;23.598;2024-02-26T03:46:39;56.80;;;30.30;;
61358;SDS011;47228;46.762;23.598;2024-02-26T03:49:07;57.40;;;29.70;;
61358;SDS011;47228;46.762;23.598;2024-02-26T03:51:35;58.10;;;30.50;;
61358;SDS011;47228;46.762;23.598;2024-02-26T03:54:05;54.00;;;30.00;;
61358;SDS011;47228;46.762;23.598;2024-02-26T03:56:33;58.90;;;30.30;;
61358;SDS011;47228;46.762;23.598;2024-02-26T03:59:01;63.90;;;31.00;;
61358;SDS011;47228;46.762;23.598;2024-02-26T04:01:30;58.70;;;30.30;;
61358;SDS011;47228;46.762;23.598;2024-02-26T04:03:58;57.90;;;30.20;;
61358;SDS011;47228;46.762;23.598;2024-02-26T04:06:27;58.00;;;30.50;;
61358;SDS011;47228;46.762;23.598;2024-02-26T04:08:55;60.00;;;32.20;;
61358;SDS011;47228;46.762;23.598;2024-02-26T04:11:23;55.10;;;30.60;;
61358;SDS011;47228;46.762;23.598;2024-02-26T04:13:52;57.70;;;29.90;;
61358;SDS011;47228;46.762;23.598;2024-02-26T04:16:20;61.70;;;30.50;;
61358;SDS011;47228;46.762;23.598;2024-02-26T04:18:48;52.00;;;28.20;;
61358;SDS011;47228;46.762;23.598;2024-02-26T04:21:17;50.60;;;26.20;;
61358;SDS011;47228;46.762;23.598;2024-02-26T04:23:45;50.70;;;26.70;;
61358;SDS011;47228;46.762;23.598;2024-02-26T04:26:13;50.90;;;26.90;;
61358;SDS011;47228;46.762;23.598;2024-02-26T04:28:41;42.90;;;25.40;;
61358;SDS011;47228;46.762;23.598;2024-02-26T04:31:09;45.90;;;25.00;;
61358;SDS011;47228;46.762;23.598;2024-02-26T04:33:37;42.50;;;23.20;;
61358;SDS011;47228;46.762;23.598;2024-02-26T04:36:11;48.30;;;26.30;;
61358;SDS011;47228;46.762;23.598;2024-02-26T04:38:41;50.10;;;25.00;;
61358;SDS011;47228;46.762;23.598;2024-02-26T04:41:10;51.00;;;27.40;;
61358;SDS011;47228;46.762;23.598;2024-02-26T04:43:38;49.50;;;25.60;;
61358;SDS011;47228;46.762;23.598;2024-02-26T04:46:09;51.30;;;25.90;;
61358;SDS011;47228;46.762;23.598;2024-02-26T04:48:38;53.00;;;27.50;;
61358;SDS011;47228;46.762;23.598;2024-02-26T04:51:07;58.80;;;28.30;;
61358;SDS011;47228;46.762;23.598;2024-02-26T04:53:35;50.20;;;24.60;;
61358;SDS011;47228;46.762;23.598;2024-02-26T04:56:03;50.40;;;26.40;;
61358;SDS011;47228;46.762;23.598;2024-02-26T04:58:31;51.50;;;26.60;;
61358;SDS011;47228;46.762;23.598;2024-02-26T05:00:59;51.70;;;28.00;;
61358;SDS011;47228;46.762;23.598;2024-02-26T05:03:28;53.20;;;27.60;;
61358;SDS011;47228;46.762;23.598;2024-02-26T05:05:56;43.10;;;24.60;;
61358;SDS011;47228;46.762;23.598;2024-02-26T05:08:26;48.00;;;26.70;;
61358;SDS011;47228;46.762;23.598;2024-02-26T05:10:54;49.50;;;25.90;;
61358;SDS011;47228;46.762;23.598;2024-02-26T05:13:22;49.50;;;25.10;;
61358;SDS011;47228;46.762;23.598;2024-02-26T05:15:50;46.50;;;24.00;;
61358;SDS011;47228;46.762;23.598;2024-02-26T05:18:20;49.30;;;27.00;;
61358;SDS011;47228;46.762;23.598;2024-02-26T05:20:48;47.90;;;25.90;;
61358;SDS011;47228;46.762;23.598;2024-02-26T05:23:16;50.60;;;27.00;;
61358;SDS011;47228;46.762;23.598;2024-02-26T05:25:45;52.40;;;26.40;;
61358;SDS011;47228;46.762;23.598;2024-02-26T05:28:15;51.90;;;27.80;;
61358;SDS011;47228;46.762;23.598;2024-02-26T05:30:44;51.70;;;25.60;;
61358;SDS011;47228;46.762;23.598;2024-02-26T05:33:12;52.30;;;26.70;;
61358;SDS011;47228;46.762;23.598;2024-02-26T05:35:45;48.00;;;25.90;;
61358;SDS011;47228;46.762;23.598;2024-02-26T05:38:14;50.90;;;25.70;;
61358;SDS011;47228;46.762;23.598;2024-02-26T05:40:42;45.60;;;24.80;;
61358;SDS011;47228;46.762;23.598;2024-02-26T05:43:11;53.20;;;27.50;;
61358;SDS011;47228;46.762;23.598;2024-02-26T05:45:39;60.10;;;27.00;;
61358;SDS011;47228;46.762;23.598;2024-02-26T05:48:07;54.70;;;26.20;;
61358;SDS011;47228;46.762;23.598;2024-02-26T05:50:35;50.40;;;27.30;;
61358;SDS011;47228;46.762;23.598;2024-02-26T05:53:04;52.00;;;25.80;;
61358;SDS011;47228;46.762;23.598;2024-02-26T05:55:32;45.80;;;26.00;;
61358;SDS011;47228;46.762;23.598;2024-02-26T05:58:00;49.20;;;25.80;;
61358;SDS011;47228;46.762;23.598;2024-02-26T06:00:28;46.20;;;25.20;;
61358;SDS011;47228;46.762;23.598;2024-02-26T06:02:57;52.20;;;26.90;;
61358;SDS011;47228;46.762;23.598;2024-02-26T06:05:25;49.10;;;26.90;;
61358;SDS011;47228;46.762;23.598;2024-02-26T06:07:54;51.40;;;28.60;;
61358;SDS011;47228;46.762;23.598;2024-02-26T06:10:22;50.80;;;27.40;;
61358;SDS011;47228;46.762;23.598;2024-02-26T06:12:50;56.40;;;26.60;;
61358;SDS011;47228;46.762;23.598;2024-02-26T06:15:18;61.10;;;29.00;;
61358;SDS011;47228;46.762;23.598;2024-02-26T06:17:46;54.50;;;27.40;;
61358;SDS011;47228;46.762;23.598;2024-02-26T06:20:15;47.90;;;26.90;;
61358;SDS011;47228;46.762;23.598;2024-02-26T06:22:43;58.10;;;29.30;;
61358;SDS011;47228;46.762;23.598;2024-02-26T06:25:11;57.60;;;29.20;;
61358;SDS011;47228;46.762;23.598;2024-02-26T06:27:40;60.90;;;29.20;;
61358;SDS011;47228;46.762;23.598;2024-02-26T06:30:08;58.70;;;29.80;;
61358;SDS011;47228;46.762;23.598;2024-02-26T06:32:39;57.40;;;31.20;;
61358;SDS011;47228;46.762;23.598;2024-02-26T06:35:07;60.10;;;29.80;;
61358;SDS011;47228;46.762;23.598;2024-02-26T06:37:37;61.80;;;31.90;;
61358;SDS011;47228;46.762;23.598;2024-02-26T06:40:06;65.40;;;30.60;;
61358;SDS011;47228;46.762;23.598;2024-02-26T06:42:34;61.80;;;32.00;;
61358;SDS011;47228;46.762;23.598;2024-02-26T06:45:03;58.60;;;29.60;;
61358;SDS011;47228;46.762;23.598;2024-02-26T06:47:36;58.90;;;31.40;;
61358;SDS011;47228;46.762;23.598;2024-02-26T06:50:11;61.20;;;31.70;;
61358;SDS011;47228;46.762;23.598;2024-02-26T06:52:44;61.50;;;31.90;;
61358;SDS011;47228;46.762;23.598;2024-02-26T06:55:14;60.60;;;31.30;;
61358;SDS011;47228;46.762;23.598;2024-02-26T06:57:42;61.60;;;31.40;;
61358;SDS011;47228;46.762;23.598;2024-02-26T07:00:11;70.20;;;31.60;;
61358;SDS011;47228;46.762;23.598;2024-02-26T07:02:44;59.00;;;30.70;;
61358;SDS011;47228;46.762;23.598;2024-02-26T07:05:13;65.70;;;32.40;;
61358;SDS011;47228;46.762;23.598;2024-02-26T07:07:41;61.80;;;31.80;;
61358;SDS011;47228;46.762;23.598;2024-02-26T07:10:09;69.30;;;32.30;;
61358;SDS011;47228;46.762;23.598;2024-02-26T07:12:40;63.90;;;32.70;;
61358;SDS011;47228;46.762;23.598;2024-02-26T07:15:08;61.70;;;31.20;;
61358;SDS011;47228;46.762;23.598;2024-02-26T07:17:38;61.60;;;29.80;;
61358;SDS011;47228;46.762;23.598;2024-02-26T07:20:10;60.20;;;29.90;;
61358;SDS011;47228;46.762;23.598;2024-02-26T07:22:39;63.00;;;29.00;;
61358;SDS011;47228;46.762;23.598;2024-02-26T07:25:07;57.10;;;28.70;;
61358;SDS011;47228;46.762;23.598;2024-02-26T07:27:36;61.10;;;28.10;;
61358;SDS011;47228;46.762;23.598;2024-02-26T07:30:04;57.00;;;28.90;;
61358;SDS011;47228;46.762;23.598;2024-02-26T07:32:34;62.20;;;30.10;;
61358;SDS011;47228;46.762;23.598;2024-02-26T07:35:02;63.60;;;31.30;;
61358;SDS011;47228;46.762;23.598;2024-02-26T07:37:31;59.00;;;29.20;;
61358;SDS011;47228;46.762;23.598;2024-02-26T07:40:01;63.40;;;29.70;;
61358;SDS011;47228;46.762;23.598;2024-02-26T07:42:30;57.90;;;29.10;;
61358;SDS011;47228;46.762;23.598;2024-02-26T07:44:59;54.70;;;28.90;;
61358;SDS011;47228;46.762;23.598;2024-02-26T07:47:27;55.10;;;28.00;;
61358;SDS011;47228;46.762;23.598;2024-02-26T07:49:55;50.10;;;26.40;;
61358;SDS011;47228;46.762;23.598;2024-02-26T07:52:23;48.50;;;26.60;;
61358;SDS011;47228;46.762;23.598;2024-02-26T07:54:52;53.70;;;27.40;;
61358;SDS011;47228;46.762;23.598;2024-02-26T07:57:20;57.40;;;29.20;;
61358;SDS011;47228;46.762;23.598;2024-02-26T07:59:49;60.80;;;30.00;;
61358;SDS011;47228;46.762;23.598;2024-02-26T08:02:18;60.00;;;31.60;;
61358;SDS011;47228;46.762;23.598;2024-02-26T08:04:46;63.70;;;33.60;;
61358;SDS011;47228;46.762;23.598;2024-02-26T08:07:14;62.20;;;33.60;;
61358;SDS011;47228;46.762;23.598;2024-02-26T08:09:44;62.00;;;35.00;;
61358;SDS011;47228;46.762;23.598;2024-02-26T08:12:13;71.80;;;36.10;;
61358;SDS011;47228;46.762;23.598;2024-02-26T08:14:42;75.60;;;36.80;;
61358;SDS011;47228;46.762;23.598;2024-02-26T08:17:11;69.90;;;36.40;;
61358;SDS011;47228;46.762;23.598;2024-02-26T08:19:39;76.50;;;37.50;;
61358;SDS011;47228;46.762;23.598;2024-02-26T08:22:08;74.10;;;37.60;;
61358;SDS011;47228;46.762;23.598;2024-02-26T08:24:37;77.00;;;36.70;;
61358;SDS011;47228;46.762;23.598;2024-02-26T08:27:06;95.30;;;42.10;;
61358;SDS011;47228;46.762;23.598;2024-02-26T08:29:34;84.30;;;39.00;;
61358;SDS011;47228;46.762;23.598;2024-02-26T08:32:03;85.30;;;38.70;;
61358;SDS011;47228;46.762;23.598;2024-02-26T08:34:32;77.80;;;39.20;;
61358;SDS011;47228;46.762;23.598;2024-02-26T08:37:00;84.00;;;39.90;;
61358;SDS011;47228;46.762;23.598;2024-02-26T08:39:28;94.10;;;41.60;;
61358;SDS011;47228;46.762;23.598;2024-02-26T08:41:56;92.40;;;41.90;;
61358;SDS011;47228;46.762;23.598;2024-02-26T08:44:24;84.80;;;42.40;;
61358;SDS011;47228;46.762;23.598;2024-02-26T08:46:54;84.10;;;39.70;;
61358;SDS011;47228;46.762;23.598;2024-02-26T08:49:22;87.50;;;41.80;;
61358;SDS011;47228;46.762;23.598;2024-02-26T08:51:51;84.50;;;42.50;;
61358;SDS011;47228;46.762;23.598;2024-02-26T08:54:19;84.50;;;41.30;;
61358;SDS011;47228;46.762;23.598;2024-02-26T08:56:48;81.70;;;40.60;;
61358;SDS011;47228;46.762;23.598;2024-02-26T08:59:16;82.20;;;39.20;;
61358;SDS011;47228;46.762;23.598;2024-02-26T09:01:47;70.40;;;34.70;;
61358;SDS011;47228;46.762;23.598;2024-02-26T09:04:15;70.90;;;34.20;;
61358;SDS011;47228;46.762;23.598;2024-02-26T09:06:43;78.90;;;35.80;;
61358;SDS011;47228;46.762;23.598;2024-02-26T09:09:12;65.90;;;33.30;;
61358;SDS011;47228;46.762;23.598;2024-02-26T09:11:40;64.30;;;32.20;;
61358;SDS011;47228;46.762;23.598;2024-02-26T09:14:08;63.50;;;32.10;;
61358;SDS011;47228;46.762;23.598;2024-02-26T09:16:36;71.40;;;31.50;;
61358;SDS011;47228;46.762;23.598;2024-02-26T09:19:05;62.00;;;30.30;;
61358;SDS011;47228;46.762;23.598;2024-02-26T09:21:33;56.00;;;28.30;;
61358;SDS011;47228;46.762;23.598;2024-02-26T09:24:01;59.60;;;27.80;;
61358;SDS011;47228;46.762;23.598;2024-02-26T09:26:30;55.10;;;26.80;;
61358;SDS011;47228;46.762;23.598;2024-02-26T09:28:58;50.40;;;26.30;;
61358;SDS011;47228;46.762;23.598;2024-02-26T09:31:26;54.90;;;26.30;;
61358;SDS011;47228;46.762;23.598;2024-02-26T09:33:54;53.50;;;25.80;;
61358;SDS011;47228;46.762;23.598;2024-02-26T09:36:26;49.40;;;24.70;;
61358;SDS011;47228;46.762;23.598;2024-02-26T09:38:55;45.40;;;21.30;;
61358;SDS011;47228;46.762;23.598;2024-02-26T09:41:28;42.90;;;18.40;;
61358;SDS011;47228;46.762;23.598;2024-02-26T09:43:58;34.30;;;16.00;;
61358;SDS011;47228;46.762;23.598;2024-02-26T09:46:30;35.70;;;16.40;;
61358;SDS011;47228;46.762;23.598;2024-02-26T09:48:59;39.60;;;16.10;;
61358;SDS011;47228;46.762;23.598;2024-02-26T09:51:27;37.10;;;17.00;;
61358;SDS011;47228;46.762;23.598;2024-02-26T09:53:59;34.50;;;15.90;;
61358;SDS011;47228;46.762;23.598;2024-02-26T09:56:35;35.80;;;16.50;;
61358;SDS011;47228;46.762;23.598;2024-02-26T09:59:22;29.30;;;15.00;;
61358;SDS011;47228;46.762;23.598;2024-02-26T10:01:50;34.30;;;15.60;;
61358;SDS011;47228;46.762;23.598;2024-02-26T10:04:20;32.10;;;16.00;;
61358;SDS011;47228;46.762;23.598;2024-02-26T10:06:50;35.80;;;15.80;;
61358;SDS011;47228;46.762;23.598;2024-02-26T10:09:19;33.60;;;15.40;;
61358;SDS011;47228;46.762;23.598;2024-02-26T10:11:48;30.90;;;14.20;;
61358;SDS011;47228;46.762;23.598;2024-02-26T10:14:18;29.60;;;13.70;;
61358;SDS011;47228;46.762;23.598;2024-02-26T10:16:46;31.30;;;13.60;;
61358;SDS011;47228;46.762;23.598;2024-02-26T10:19:27;26.70;;;13.40;;
61358;SDS011;47228;46.762;23.598;2024-02-26T10:21:57;27.00;;;13.80;;
61358;SDS011;47228;46.762;23.598;2024-02-26T10:24:26;28.70;;;12.00;;
61358;SDS011;47228;46.762;23.598;2024-02-26T10:26:56;32.80;;;12.00;;
61358;SDS011;47228;46.762;23.598;2024-02-26T10:29:25;25.10;;;11.10;;
61358;SDS011;47228;46.762;23.598;2024-02-26T10:31:59;20.80;;;10.50;;
61358;SDS011;47228;46.762;23.598;2024-02-26T10:34:27;16.20;;;8.00;;
61358;SDS011;47228;46.762;23.598;2024-02-26T10:36:56;15.40;;;7.50;;
61358;SDS011;47228;46.762;23.598;2024-02-26T10:39:24;15.00;;;6.80;;
61358;SDS011;47228;46.762;23.598;2024-02-26T10:41:52;17.60;;;7.60;;
61358;SDS011;47228;46.762;23.598;2024-02-26T10:44:21;15.50;;;7.10;;
61358;SDS011;47228;46.762;23.598;2024-02-26T10:46:49;13.40;;;6.70;;
61358;SDS011;47228;46.762;23.598;2024-02-26T10:49:19;18.10;;;7.20;;
61358;SDS011;47228;46.762;23.598;2024-02-26T10:51:54;20.10;;;8.10;;
61358;SDS011;47228;46.762;23.598;2024-02-26T10:54:27;15.40;;;7.60;;
61358;SDS011;47228;46.762;23.598;2024-02-26T10:56:57;15.20;;;8.40;;
61358;SDS011;47228;46.762;23.598;2024-02-26T10:59:27;16.90;;;8.90;;
61358;SDS011;47228;46.762;23.598;2024-02-26T11:01:55;16.80;;;8.90;;
61358;SDS011;47228;46.762;23.598;2024-02-26T11:04:25;20.30;;;9.80;;
61358;SDS011;47228;46.762;23.598;2024-02-26T11:06:58;18.80;;;9.90;;
61358;SDS011;47228;46.762;23.598;2024-02-26T11:09:27;18.90;;;9.60;;
61358;SDS011;47228;46.762;23.598;2024-02-26T11:11:56;18.50;;;9.30;;
61358;SDS011;47228;46.762;23.598;2024-02-26T11:14:25;19.50;;;8.60;;
61358;SDS011;47228;46.762;23.598;2024-02-26T11:16:54;18.60;;;9.90;;
61358;SDS011;47228;46.762;23.598;2024-02-26T11:19:24;18.90;;;9.40;;
61358;SDS011;47228;46.762;23.598;2024-02-26T11:21:52;23.60;;;10.10;;
61358;SDS011;47228;46.762;23.598;2024-02-26T11:24:20;18.40;;;9.00;;
61358;SDS011;47228;46.762;23.598;2024-02-26T11:26:50;20.60;;;9.20;;
61358;SDS011;47228;46.762;23.598;2024-02-26T11:29:41;22.30;;;10.10;;
61358;SDS011;47228;46.762;23.598;2024-02-26T11:32:12;23.50;;;9.60;;
61358;SDS011;47228;46.762;23.598;2024-02-26T11:34:40;20.20;;;9.80;;
61358;SDS011;47228;46.762;23.598;2024-02-26T11:37:13;27.00;;;9.30;;
61358;SDS011;47228;46.762;23.598;2024-02-26T11:39:43;18.00;;;8.70;;
61358;SDS011;47228;46.762;23.598;2024-02-26T11:42:14;18.50;;;8.40;;
61358;SDS011;47228;46.762;23.598;2024-02-26T11:44:43;20.50;;;8.40;;
61358;SDS011;47228;46.762;23.598;2024-02-26T11:47:19;18.20;;;8.10;;
61358;SDS011;47228;46.762;23.598;2024-02-26T11:49:47;17.40;;;8.60;;
61358;SDS011;47228;46.762;23.598;2024-02-26T11:52:16;19.40;;;8.50;;
61358;SDS011;47228;46.762;23.598;2024-02-26T11:54:52;15.90;;;8.40;;
61358;SDS011;47228;46.762;23.598;2024-02-26T11:57:25;14.80;;;7.80;;
61358;SDS011;47228;46.762;23.598;2024-02-26T12:00:10;20.50;;;9.10;;
61358;SDS011;47228;46.762;23.598;2024-02-26T12:02:51;19.10;;;8.70;;
61358;SDS011;47228;46.762;23.598;2024-02-26T12:05:30;18.00;;;8.60;;
61358;SDS011;47228;46.762;23.598;2024-02-26T12:08:02;16.70;;;7.90;;
61358;SDS011;47228;46.762;23.598;2024-02-26T12:10:36;22.30;;;9.10;;
61358;SDS011;47228;46.762;23.598;2024-02-26T12:15:37;20.50;;;8.90;;
61358;SDS011;47228;46.762;23.598;2024-02-26T12:18:07;15.50;;;8.40;;
61358;SDS011;47228;46.762;23.598;2024-02-26T12:20:38;19.70;;;9.00;;
61358;SDS011;47228;46.762;23.598;2024-02-26T12:23:06;19.60;;;9.50;;
61358;SDS011;47228;46.762;23.598;2024-02-26T12:25:35;21.70;;;9.60;;
61358;SDS011;47228;46.762;23.598;2024-02-26T12:28:03;22.20;;;9.80;;
61358;SDS011;47228;46.762;23.598;2024-02-26T12:30:31;20.80;;;9.60;;
61358;SDS011;47228;46.762;23.598;2024-02-26T12:33:00;23.80;;;10.00;;
61358;SDS011;47228;46.762;23.598;2024-02-26T12:35:29;21.80;;;10.10;;
61358;SDS011;47228;46.762;23.598;2024-02-26T12:38:00;20.10;;;10.10;;
61358;SDS011;47228;46.762;23.598;2024-02-26T12:40:28;21.00;;;9.10;;
61358;SDS011;47228;46.762;23.598;2024-02-26T12:42:57;16.90;;;8.70;;
61358;SDS011;47228;46.762;23.598;2024-02-26T12:45:26;21.10;;;9.40;;
61358;SDS011;47228;46.762;23.598;2024-02-26T12:47:56;21.00;;;10.30;;
61358;SDS011;47228;46.762;23.598;2024-02-26T12:50:25;22.50;;;9.70;;
61358;SDS011;47228;46.762;23.598;2024-02-26T12:52:53;20.90;;;9.90;;
61358;SDS011;47228;46.762;23.598;2024-02-26T12:55:21;22.50;;;9.90;;
61358;SDS011;47228;46.762;23.598;2024-02-26T12:57:50;22.50;;;10.50;;
61358;SDS011;47228;46.762;23.598;2024-02-26T13:00:21;19.20;;;8.90;;
61358;SDS011;47228;46.762;23.598;2024-02-26T13:02:51;19.40;;;8.80;;
61358;SDS011;47228;46.762;23.598;2024-02-26T13:05:23;16.10;;;8.40;;
61358;SDS011;47228;46.762;23.598;2024-02-26T13:07:52;17.40;;;7.70;;
61358;SDS011;47228;46.762;23.598;2024-02-26T13:10:21;17.90;;;8.40;;
61358;SDS011;47228;46.762;23.598;2024-02-26T13:12:49;17.30;;;8.50;;
61358;SDS011;47228;46.762;23.598;2024-02-26T13:15:21;16.00;;;8.70;;
61358;SDS011;47228;46.762;23.598;2024-02-26T13:17:50;20.80;;;8.70;;
61358;SDS011;47228;46.762;23.598;2024-02-26T13:20:28;15.30;;;8.10;;
61358;SDS011;47228;46.762;23.598;2024-02-26T13:23:06;16.00;;;7.90;;
61358;SDS011;47228;46.762;23.598;2024-02-26T13:25:34;15.40;;;8.40;;
61358;SDS011;47228;46.762;23.598;2024-02-26T13:28:16;16.60;;;8.30;;
61358;SDS011;47228;46.762;23.598;2024-02-26T13:30:52;18.10;;;9.60;;
61358;SDS011;47228;46.762;23.598;2024-02-26T13:35:58;20.20;;;9.20;;
61358;SDS011;47228;46.762;23.598;2024-02-26T13:38:27;15.40;;;8.60;;
61358;SDS011;47228;46.762;23.598;2024-02-26T13:40:56;26.00;;;9.70;;
61358;SDS011;47228;46.762;23.598;2024-02-26T13:43:24;16.30;;;8.90;;
61358;SDS011;47228;46.762;23.598;2024-02-26T13:45:52;23.00;;;10.30;;
61358;SDS011;47228;46.762;23.598;2024-02-26T13:48:21;23.30;;;10.90;;
61358;SDS011;47228;46.762;23.598;2024-02-26T13:50:50;22.40;;;11.40;;
61358;SDS011;47228;46.762;23.598;2024-02-26T13:53:18;23.80;;;11.30;;
61358;SDS011;47228;46.762;23.598;2024-02-26T13:55:47;23.90;;;13.20;;
61358;SDS011;47228;46.762;23.598;2024-02-26T13:58:15;23.10;;;12.30;;
61358;SDS011;47228;46.762;23.598;2024-02-26T14:00:44;22.90;;;12.90;;
61358;SDS011;47228;46.762;23.598;2024-02-26T14:03:12;25.80;;;12.50;;
61358;SDS011;47228;46.762;23.598;2024-02-26T14:05:40;21.40;;;12.80;;
61358;SDS011;47228;46.762;23.598;2024-02-26T14:08:13;23.60;;;12.90;;
61358;SDS011;47228;46.762;23.598;2024-02-26T14:10:42;22.10;;;11.40;;
61358;SDS011;47228;46.762;23.598;2024-02-26T14:13:13;23.00;;;12.30;;
61358;SDS011;47228;46.762;23.598;2024-02-26T14:15:41;26.30;;;11.80;;
61358;SDS011;47228;46.762;23.598;2024-02-26T14:18:11;20.30;;;10.80;;
61358;SDS011;47228;46.762;23.598;2024-02-26T14:20:39;19.50;;;11.70;;
61358;SDS011;47228;46.762;23.598;2024-02-26T14:23:08;22.10;;;11.80;;
61358;SDS011;47228;46.762;23.598;2024-02-26T14:25:36;22.10;;;11.80;;
61358;SDS011;47228;46.762;23.598;2024-02-26T14:28:05;21.10;;;11.90;;